createdAt,value
2022-12-27T00:01:21.032Z,-2.4
2022-12-27T00:06:28.677Z,-2.4
2022-12-27T00:11:20.106Z,-2.4
2022-12-27T00:16:32.127Z,-2.4
2022-12-27T00:21:57.075Z,-2.5
2022-12-27T00:27:20.064Z,-2.5
2022-12-27T00:32:25.828Z,-2.6
2022-12-27T00:37:33.099Z,-2.6
2022-12-27T00:42:40.097Z,-2.6
2022-12-27T00:48:02.401Z,-2.7
2022-12-27T00:53:24.903Z,-2.8
2022-12-27T00:58:31.646Z,-2.9
2022-12-27T01:03:39.406Z,-2.9
2022-12-27T01:08:31.093Z,-3
2022-12-27T01:13:37.573Z,-3
2022-12-27T01:19:00.141Z,-3.1
2022-12-27T01:24:22.559Z,-3
2022-12-27T01:29:29.454Z,-2.9
2022-12-27T01:34:52.524Z,-2.9
2022-12-27T01:40:15.475Z,-2.9
2022-12-27T01:45:37.458Z,-2.9
2022-12-27T01:50:44.638Z,-2.9
2022-12-27T01:55:51.299Z,-2.9
2022-12-27T02:00:58.183Z,-2.9
2022-12-27T02:06:21.535Z,-2.9
2022-12-27T02:11:44.432Z,-3.1
2022-12-27T02:17:07.683Z,-3.1
2022-12-27T02:22:29.478Z,-3.1
2022-12-27T02:27:57.342Z,-3.1
2022-12-27T02:33:20.566Z,-3.2
2022-12-27T02:38:27.527Z,-3.3
2022-12-27T02:43:50.163Z,-3.3
2022-12-27T02:49:15.169Z,-3.4
2022-12-27T02:54:38.062Z,-3.5
2022-12-27T03:00:00.581Z,-3.6
2022-12-27T03:05:29.433Z,-3.7
2022-12-27T03:16:04.482Z,-3.8
2022-12-27T03:21:26.714Z,-3.9
2022-12-27T03:26:48.892Z,-4
2022-12-27T03:32:11.898Z,-4.1
2022-12-27T03:37:18.902Z,-4.1
2022-12-27T03:42:26.527Z,-4.2
2022-12-27T03:47:49.852Z,-4.3
2022-12-27T03:53:11.649Z,-4.3
2022-12-27T03:58:40.169Z,-4.4
2022-12-27T04:03:33.944Z,-4.4
2022-12-27T04:08:56.575Z,-4.3
2022-12-27T04:14:18.660Z,-4.4
2022-12-27T04:19:41.713Z,-4.4
2022-12-27T04:24:48.191Z,-4.5
2022-12-27T04:29:54.927Z,-4.5
2022-12-27T04:35:02.812Z,-4.5
2022-12-27T04:40:25.548Z,-4.6
2022-12-27T04:45:49.675Z,-4.6
2022-12-27T04:51:12.586Z,-4.6
2022-12-27T04:56:35.376Z,-4.7
2022-12-27T05:01:48.214Z,-4.7
2022-12-27T05:07:11.755Z,-4.6
2022-12-27T05:12:18.807Z,-4.4
2022-12-27T05:17:42.107Z,-4.3
2022-12-27T05:23:05.012Z,-4.4
2022-12-27T05:28:13.122Z,-4.3
2022-12-27T05:33:41.438Z,-4.2
2022-12-27T05:39:07.342Z,-4.1
2022-12-27T05:44:30.000Z,-4.1
2022-12-27T05:49:51.828Z,-4.1
2022-12-27T05:55:17.872Z,-4.1
2022-12-27T06:00:40.522Z,-4.2
2022-12-27T06:06:03.732Z,-4.2
2022-12-27T06:11:26.676Z,-4.2
2022-12-27T06:16:49.593Z,-4.1
2022-12-27T06:22:17.047Z,-4.1
2022-12-27T06:27:39.752Z,-3.9
2022-12-27T06:33:02.185Z,-3.7
2022-12-27T06:38:25.488Z,-3.4
2022-12-27T06:43:32.894Z,-2.9
2022-12-27T06:48:41.271Z,-2
2022-12-27T06:54:03.899Z,1.1
2022-12-27T06:59:26.951Z,5.9
2022-12-27T07:04:51.298Z,11.5
2022-12-27T07:10:14.044Z,16.5
2022-12-27T07:15:36.669Z,20.7
2022-12-27T07:20:59.032Z,21.4
2022-12-27T07:26:26.199Z,21.1
2022-12-27T07:31:49.620Z,21.1
2022-12-27T07:37:14.043Z,24.8
2022-12-27T07:42:42.357Z,30.3
2022-12-27T07:48:05.575Z,34.9
2022-12-27T07:53:34.555Z,38.9
2022-12-27T07:59:02.302Z,42.3
2022-12-27T08:04:26.185Z,42.7
2022-12-27T08:09:48.968Z,35.4
2022-12-27T08:14:56.053Z,34.2
2022-12-27T08:20:03.631Z,40.4
2022-12-27T08:25:26.799Z,42.1
2022-12-27T08:30:39.904Z,35.9
2022-12-27T08:37:12.632Z,38.3
2022-12-27T08:42:38.902Z,43.5
2022-12-27T08:48:02.358Z,38.1
2022-12-27T08:53:40.591Z,38.3
2022-12-27T08:59:07.174Z,39.8
2022-12-27T09:04:15.010Z,40.3
2022-12-27T09:09:42.277Z,41.3
2022-12-27T09:15:04.411Z,42.5
2022-12-27T09:20:26.986Z,43.8
2022-12-27T09:25:34.738Z,44.8
2022-12-27T09:31:01.007Z,45.8
2022-12-27T09:36:13.565Z,46.5
2022-12-27T09:42:50.053Z,47.1
2022-12-27T09:48:11.626Z,47.6
2022-12-27T09:53:39.154Z,48
2022-12-27T09:59:40.155Z,48.6
2022-12-27T10:05:56.315Z,49.4
2022-12-27T10:11:19.200Z,50.6
2022-12-27T10:16:47.083Z,51
2022-12-27T10:22:10.311Z,51.6
2022-12-27T10:27:23.754Z,52.4
2022-12-27T10:32:47.279Z,52.9
2022-12-27T10:38:11.109Z,53.6
2022-12-27T10:43:33.585Z,53.8
2022-12-27T10:49:35.973Z,53.8
2022-12-27T10:54:59.400Z,53.1
2022-12-27T11:00:27.711Z,52.3
2022-12-27T11:05:51.674Z,54.1
2022-12-27T11:11:18.976Z,54.4
2022-12-27T11:16:47.388Z,54.8
2022-12-27T11:22:17.834Z,55.1
2022-12-27T11:27:44.501Z,55.8
2022-12-27T11:33:07.135Z,55.8
2022-12-27T11:38:31.665Z,53.8
2022-12-27T11:43:56.461Z,46.6
2022-12-27T11:49:09.796Z,44.2
2022-12-27T11:54:17.517Z,41.9
2022-12-27T11:59:40.388Z,38.4
2022-12-27T12:05:06.561Z,35.4
2022-12-27T12:10:34.768Z,32.9
2022-12-27T12:15:41.997Z,30.8
2022-12-27T12:21:07.637Z,28.9
2022-12-27T12:26:30.484Z,27.4
2022-12-27T12:32:31.151Z,26.1
2022-12-27T12:37:53.911Z,25.1
2022-12-27T12:43:16.884Z,24.2
2022-12-27T12:48:26.098Z,23.5
2022-12-27T12:53:56.260Z,23.1
2022-12-27T12:59:22.803Z,24.4
2022-12-27T13:04:47.089Z,26.5
2022-12-27T13:10:16.103Z,26.6
2022-12-27T13:15:45.947Z,26.1
2022-12-27T13:20:53.441Z,25.4
2022-12-27T13:26:16.084Z,24.6
2022-12-27T13:31:39.089Z,23.8
2022-12-27T13:37:05.562Z,22.9
2022-12-27T13:42:28.486Z,22.1
2022-12-27T13:47:54.938Z,21.4
2022-12-27T13:53:16.874Z,20.6
2022-12-27T13:59:16.425Z,19.9
2022-12-27T14:04:41.204Z,20
2022-12-27T14:09:50.892Z,20.8
2022-12-27T14:15:17.902Z,20.6
2022-12-27T14:20:43.652Z,20.1
2022-12-27T14:26:06.313Z,19.4
2022-12-27T14:31:35.881Z,18.9
2022-12-27T14:37:01.632Z,18.2
2022-12-27T14:42:08.635Z,17.5
2022-12-27T14:47:31.320Z,16.8
2022-12-27T14:53:31.211Z,16.1
2022-12-27T14:58:59.991Z,15.4
2022-12-27T15:04:31.539Z,14.8
2022-12-27T15:09:57.923Z,14.1
2022-12-27T15:15:23.633Z,13.5
2022-12-27T15:20:48.353Z,12.9
2022-12-27T15:26:16.124Z,12.4
2022-12-27T15:31:40.244Z,11.9
2022-12-27T15:37:09.364Z,11.5
2022-12-27T15:42:40.690Z,11.1
2022-12-27T15:48:05.562Z,10.8
2022-12-27T15:53:28.336Z,10.4
2022-12-27T15:58:54.456Z,10.2
2022-12-27T16:04:20.725Z,10
2022-12-27T16:09:04.584Z,9.8
2022-12-27T16:14:16.800Z,9.6
2022-12-27T16:19:08.311Z,9.5
2022-12-27T16:24:15.454Z,9.3
2022-12-27T16:29:44.008Z,9.1
2022-12-27T16:35:12.283Z,8.9
2022-12-27T16:40:38.484Z,8.8
2022-12-27T16:46:06.997Z,8.6
2022-12-27T16:51:15.555Z,8.3
2022-12-27T16:56:38.309Z,8
2022-12-27T17:02:06.278Z,7.8
2022-12-27T17:08:15.529Z,7.5
2022-12-27T17:13:38.669Z,7.3
2022-12-27T17:19:02.507Z,7.2
2022-12-27T17:24:29.037Z,7.1
2022-12-27T17:29:41.263Z,7
2022-12-27T17:35:05.223Z,7
2022-12-27T17:39:47.540Z,6.9
2022-12-27T17:44:59.357Z,6.8
2022-12-27T17:50:26.751Z,6.6
2022-12-27T17:55:34.592Z,6.6
2022-12-27T18:00:45.115Z,6.6
2022-12-27T18:06:16.395Z,6.5
2022-12-27T18:11:27.979Z,6.6
2022-12-27T18:16:34.900Z,6.6
2022-12-27T18:21:48.275Z,6.6
2022-12-27T18:27:10.269Z,6.6
2022-12-27T18:32:33.896Z,6.6
2022-12-27T18:38:01.017Z,6.6
2022-12-27T18:43:23.853Z,6.6
2022-12-27T18:48:46.571Z,6.6
2022-12-27T18:54:09.947Z,6.4
2022-12-27T18:59:33.435Z,6.3
2022-12-27T19:04:47.412Z,6.2
2022-12-27T19:10:10.536Z,6
2022-12-27T19:15:36.320Z,5.9
2022-12-27T19:20:58.466Z,5.8
2022-12-27T19:26:21.716Z,5.8
2022-12-27T19:31:44.898Z,5.6
2022-12-27T19:37:08.000Z,5.4
2022-12-27T19:42:35.322Z,5.3
2022-12-27T19:48:00.133Z,5.1
2022-12-27T19:53:52.364Z,4.9
2022-12-27T19:59:21.818Z,4.8
2022-12-27T20:04:48.044Z,4.7
2022-12-27T20:11:05.280Z,4.5
2022-12-27T20:16:13.000Z,4.4
2022-12-27T20:21:40.511Z,4.3
2022-12-27T20:27:02.933Z,4.3
2022-12-27T20:32:34.871Z,4.3
2022-12-27T20:37:42.322Z,4.3
2022-12-27T20:43:04.758Z,4.3
2022-12-27T20:48:28.186Z,4.3
2022-12-27T20:53:55.869Z,4.2
2022-12-27T20:59:18.505Z,4.2
2022-12-27T21:04:51.690Z,4.1
2022-12-27T21:10:19.201Z,4.1
2022-12-27T21:15:42.625Z,4.1
2022-12-27T21:21:06.306Z,4
2022-12-27T21:26:32.928Z,3.9
2022-12-27T21:32:01.856Z,3.9
2022-12-27T21:37:13.403Z,3.9
2022-12-27T21:42:36.087Z,3.8
2022-12-27T21:48:00.732Z,3.8
2022-12-27T21:53:30.444Z,3.7
2022-12-27T21:58:37.634Z,3.7
2022-12-27T22:04:14.078Z,3.6
2022-12-27T22:09:40.551Z,3.6
2022-12-27T22:14:53.179Z,3.7
2022-12-27T22:20:15.990Z,3.7
2022-12-27T22:25:38.652Z,3.8
2022-12-27T22:30:47.816Z,3.8
2022-12-27T22:35:54.944Z,3.9
2022-12-27T22:41:48.737Z,4
2022-12-27T22:47:40.386Z,4.1
2022-12-27T22:52:47.023Z,4.2
2022-12-27T22:58:48.940Z,4.3
2022-12-27T23:04:13.003Z,4.4
2022-12-27T23:09:57.445Z,4.4
2022-12-27T23:15:20.413Z,4.4
2022-12-27T23:20:12.137Z,4.6
2022-12-27T23:26:13.175Z,4.6
2022-12-27T23:31:35.988Z,4.6
2022-12-27T23:37:21.710Z,4.8
2022-12-27T23:42:13.309Z,4.8
2022-12-27T23:48:18.968Z,4.9
2022-12-27T23:52:57.624Z,5
2022-12-27T23:58:32.317Z,5.1
